Time;durP1;ratioP1;P1;durP2;ratioP2;P2;SDS_P1;SDS_P2;PMS_P1;PMS_P2;Temp;Humidity;BMP_temperature;BMP_pressure;BME280_temperature;BME280_humidity;BME280_pressure;Samples;Min_cycle;Max_cycle;Signal;HPM_P1;HPM_P2
2023/06/03 00:00:57;;;;;;;;;12.75;11.00;;;;;18.34;48.47;101337.13;6244419;22;45380;-74
2023/06/03 00:03:23;;;;;;;;;12.75;12.00;;;;;18.32;48.95;101344.44;6246283;22;45407;-74
2023/06/03 00:05:48;;;;;;;;;14.00;14.00;;;;;18.26;48.88;101333.97;6246486;22;45244;-74
2023/06/03 00:08:13;;;;;;;;;13.50;11.75;;;;;18.19;48.88;101327.16;6270304;22;45285;-75
2023/06/03 00:10:39;;;;;;;;;13.00;12.25;;;;;18.27;49.37;101343.84;6246643;22;45347;-74
2023/06/03 00:13:05;;;;;;;;;15.50;14.25;;;;;18.15;49.25;101323.78;6246245;22;45511;-74
2023/06/03 00:15:30;;;;;;;;;12.25;12.25;;;;;18.07;49.47;101313.38;6244022;22;45652;-74
2023/06/03 00:17:55;;;;;;;;;13.75;12.25;;;;;18.08;49.90;101315.13;6246531;22;45267;-74
2023/06/03 00:20:21;;;;;;;;;15.75;12.50;;;;;18.18;49.51;101334.41;6245764;22;45398;-74
2023/06/03 00:22:46;;;;;;;;;14.75;12.75;;;;;18.04;49.92;101316.28;6246359;22;46285;-74
2023/06/03 00:25:12;;;;;;;;;15.50;13.00;;;;;18.11;49.72;101333.88;6245303;22;45637;-74
2023/06/03 00:27:38;;;;;;;;;15.50;13.75;;;;;17.95;50.40;101311.34;6245994;22;45436;-74
2023/06/03 00:30:06;;;;;;;;;18.00;15.00;;;;;18.00;50.50;101330.88;6246176;22;45587;-74
2023/06/03 00:32:32;;;;;;;;;14.75;14.00;;;;;17.98;50.93;101335.50;6244707;22;45314;-74
2023/06/03 00:34:57;;;;;;;;;15.00;13.50;;;;;17.93;50.66;101324.06;6246406;22;45193;-74
2023/06/03 00:37:23;;;;;;;;;14.25;13.00;;;;;17.88;50.56;101316.22;6246067;22;45341;-74
2023/06/03 00:39:48;;;;;;;;;14.50;14.50;;;;;17.72;50.88;101296.34;6246716;22;45194;-74
2023/06/03 00:42:14;;;;;;;;;14.75;13.25;;;;;17.82;50.95;101303.00;6246175;22;46121;-74
2023/06/03 00:44:39;;;;;;;;;16.50;14.75;;;;;17.84;51.06;101311.91;6244105;22;45293;-74
2023/06/03 00:47:06;;;;;;;;;12.75;12.75;;;;;17.83;51.53;101318.25;6244360;22;45218;-74
2023/06/03 00:49:32;;;;;;;;;20.75;16.50;;;;;17.83;51.30;101312.00;6245879;22;45406;-74
2023/06/03 00:51:58;;;;;;;;;13.75;13.75;;;;;17.77;51.50;101313.19;6244122;22;46248;-74
2023/06/03 00:54:24;;;;;;;;;16.50;14.25;;;;;17.80;51.69;101314.84;6244626;22;45362;-75
2023/06/03 00:56:51;;;;;;;;;14.00;12.00;;;;;17.65;51.74;101293.09;6244037;22;45508;-74
2023/06/03 00:59:17;;;;;;;;;15.00;12.50;;;;;17.74;51.80;101311.53;6244288;22;45512;-74
2023/06/03 01:01:43;;;;;;;;;14.00;13.00;;;;;17.68;52.15;101294.78;6245567;22;46562;-74
2023/06/03 01:04:18;;;;;;;;;17.25;15.25;;;;;17.73;52.11;101317.00;6246242;22;45260;-74
2023/06/03 01:07:07;;;;;;;;;14.25;12.25;;;;;17.68;52.39;101300.19;6246391;22;45277;-74
2023/06/03 01:09:58;;;;;;;;;19.25;18.00;;;;;17.64;52.94;101304.88;6246143;22;45359;-74
2023/06/03 01:12:36;;;;;;;;;14.75;14.00;;;;;17.63;52.61;101297.72;6244892;22;46058;-74
2023/06/03 01:15:13;;;;;;;;;13.25;13.25;;;;;17.39;52.55;101268.38;6245978;22;45328;-74
2023/06/03 01:17:45;;;;;;;;;17.25;14.25;;;;;17.52;53.09;101292.88;6246279;22;45355;-74
2023/06/03 01:20:12;;;;;;;;;18.25;16.00;;;;;17.51;52.86;101293.00;6244219;22;45784;-75
2023/06/03 01:22:42;;;;;;;;;18.25;15.00;;;;;17.45;52.89;101299.56;6245381;22;47633;-74
2023/06/03 01:25:16;;;;;;;;;18.00;17.75;;;;;17.34;53.61;101285.75;6245839;22;45344;-74
2023/06/03 01:27:45;;;;;;;;;19.50;16.00;;;;;17.41;53.68;101298.84;6244857;22;45256;-74
2023/06/03 01:30:14;;;;;;;;;14.00;14.00;;;;;17.38;53.83;101279.25;6245374;22;45302;-74
2023/06/03 01:32:45;;;;;;;;;17.00;16.00;;;;;17.37;53.86;101285.59;6245508;22;46238;-74
2023/06/03 01:35:11;;;;;;;;;16.25;15.00;;;;;17.51;53.81;101298.38;6245784;22;45418;-74
2023/06/03 01:37:39;;;;;;;;;14.50;14.50;;;;;17.49;53.73;101292.16;6245626;22;45364;-74
2023/06/03 01:40:07;;;;;;;;;14.75;14.00;;;;;17.57;53.49;101298.94;6245248;22;45331;-74
2023/06/03 01:42:32;;;;;;;;;20.00;16.00;;;;;17.47;53.50;101281.44;6243107;22;46487;-74
2023/06/03 01:44:58;;;;;;;;;17.00;14.75;;;;;17.45;53.54;101285.19;6244941;22;45264;-74
2023/06/03 01:47:24;;;;;;;;;14.50;14.50;;;;;17.38;53.67;101277.41;6245581;22;45220;-74
2023/06/03 01:49:49;;;;;;;;;22.75;18.25;;;;;17.43;53.57;101293.38;6245901;22;45282;-75
2023/06/03 01:52:15;;;;;;;;;17.25;16.25;;;;;17.28;54.00;101280.69;6245333;22;45697;-74
2023/06/03 01:54:41;;;;;;;;;20.00;19.25;;;;;17.22;54.23;101292.66;6243542;22;45303;-74
2023/06/03 01:57:07;;;;;;;;;20.50;20.00;;;;;17.20;54.32;101291.88;6269383;22;45394;-74
2023/06/03 01:59:32;;;;;;;;;18.75;18.75;;;;;17.16;54.32;101301.09;6246342;22;45335;-74
2023/06/03 02:01:59;;;;;;;;;19.00;17.00;;;;;16.98;55.05;101281.31;6246506;22;46514;-74
2023/06/03 02:04:26;;;;;;;;;18.25;14.75;;;;;16.95;55.01;101287.72;6244815;22;45424;-74
2023/06/03 02:06:58;;;;;;;;;16.75;15.75;;;;;16.83;55.12;101273.00;6247147;22;45422;-74
2023/06/03 02:09:25;;;;;;;;;19.00;16.75;;;;;16.91;55.29;101286.13;6246813;22;45522;-74
2023/06/03 02:11:52;;;;;;;;;19.75;18.00;;;;;16.94;55.24;101306.66;6246435;22;45341;-74
2023/06/03 02:14:17;;;;;;;;;20.50;19.75;;;;;16.80;55.11;101288.47;6244049;22;45747;-74
2023/06/03 02:16:43;;;;;;;;;16.50;15.00;;;;;16.73;55.84;101293.28;6245145;22;45268;-74
2023/06/03 02:19:14;;;;;;;;;17.50;14.00;;;;;16.66;55.97;101283.75;6244894;22;45360;-74
2023/06/03 02:21:39;;;;;;;;;18.50;16.75;;;;;16.67;55.85;101286.38;6246777;22;46254;-75
2023/06/03 02:24:07;;;;;;;;;19.75;19.75;;;;;16.64;56.33;101274.88;6246929;22;45375;-74
2023/06/03 02:26:33;;;;;;;;;19.75;17.00;;;;;16.59;56.39;101288.59;6247059;22;45305;-74
2023/06/03 02:28:58;;;;;;;;;15.00;12.75;;;;;16.64;56.79;101299.16;6246806;22;45260;-74
2023/06/03 02:31:24;;;;;;;;;18.00;14.75;;;;;16.64;56.84;101291.06;6247341;22;45177;-74
2023/06/03 02:33:49;;;;;;;;;17.00;15.00;;;;;16.59;56.54;101275.09;6247248;22;45183;-74
2023/06/03 02:36:14;;;;;;;;;18.75;16.50;;;;;16.74;56.58;101288.75;6247480;22;45225;-74
2023/06/03 02:38:40;;;;;;;;;22.25;19.50;;;;;16.72;56.75;101285.28;6247004;22;45172;-74
2023/06/03 02:41:06;;;;;;;;;19.25;16.75;;;;;16.56;56.79;101255.53;6244563;22;46816;-74
2023/06/03 02:43:31;;;;;;;;;20.25;17.25;;;;;16.71;56.89;101288.94;6246177;22;45262;-74
2023/06/03 02:45:56;;;;;;;;;16.75;13.00;;;;;16.74;57.01;101292.34;6247119;22;45310;-74
2023/06/03 02:48:22;;;;;;;;;22.75;20.25;;;;;16.65;56.92;101295.47;6244556;22;49877;-74
2023/06/03 02:50:47;;;;;;;;;26.50;20.00;;;;;16.68;57.08;101298.91;6247057;22;45629;-74
2023/06/03 02:53:13;;;;;;;;;18.00;17.75;;;;;16.64;57.04;101301.84;6244718;22;45305;-74
2023/06/03 02:55:38;;;;;;;;;21.25;20.50;;;;;16.59;57.38;101283.19;6247167;22;45405;-74
2023/06/03 02:58:04;;;;;;;;;22.00;19.75;;;;;16.61;57.51;101288.50;6246506;22;45351;-74
2023/06/03 03:00:30;;;;;;;;;19.00;17.25;;;;;16.60;57.70;101295.69;6246507;22;45630;-74
2023/06/03 03:02:55;;;;;;;;;16.00;15.00;;;;;16.59;57.62;101293.06;6247084;22;45327;-74
2023/06/03 03:05:23;;;;;;;;;18.75;18.75;;;;;16.53;57.92;101285.31;6246929;22;45291;-74
2023/06/03 03:07:49;;;;;;;;;20.75;18.00;;;;;16.43;57.86;101276.78;6246480;22;45236;-74
2023/06/03 03:10:15;;;;;;;;;20.75;20.00;;;;;16.51;57.79;101293.47;6246958;22;45181;-74
2023/06/03 03:12:40;;;;;;;;;19.25;18.50;;;;;16.46;57.66;101282.91;6245598;22;45543;-74
2023/06/03 03:15:07;;;;;;;;;18.75;17.00;;;;;16.36;58.03;101272.66;6246604;22;45408;-74
2023/06/03 03:17:32;;;;;;;;;21.00;19.00;;;;;16.43;57.94;101276.78;6244461;22;45499;-74
2023/06/03 03:19:58;;;;;;;;;26.25;22.00;;;;;16.49;58.06;101292.69;6247031;22;45395;-74
2023/06/03 03:22:23;;;;;;;;;21.00;18.50;;;;;16.35;58.19;101279.84;6246641;22;45736;-74
2023/06/03 03:24:50;;;;;;;;;20.00;19.00;;;;;16.37;58.33;101282.47;6247166;22;45309;-74
2023/06/03 03:27:16;;;;;;;;;18.25;17.00;;;;;16.34;58.56;101274.53;6246489;22;45303;-74
2023/06/03 03:29:44;;;;;;;;;25.25;21.75;;;;;16.38;58.14;101271.63;6246936;22;45420;-74
2023/06/03 03:32:11;;;;;;;;;19.50;16.25;;;;;16.37;58.44;101275.28;6246225;22;45440;-74
2023/06/03 03:34:39;;;;;;;;;19.25;19.25;;;;;16.44;58.16;101284.81;6245087;22;45379;-74
2023/06/03 03:37:05;;;;;;;;;18.50;18.00;;;;;16.48;58.18;101289.09;6246503;22;45240;-74
2023/06/03 03:39:30;;;;;;;;;20.50;18.50;;;;;16.41;58.12;101270.63;6246943;22;46023;-74
2023/06/03 03:41:55;;;;;;;;;22.25;21.75;;;;;16.50;58.38;101283.63;6245553;22;45327;-74
2023/06/03 03:44:27;;;;;;;;;16.25;14.75;;;;;16.47;58.04;101271.19;6247139;22;45455;-74
2023/06/03 03:47:03;;;;;;;;;21.00;18.75;;;;;16.52;58.25;101297.88;6246094;22;45578;-74
2023/06/03 03:49:31;;;;;;;;;21.00;18.75;;;;;16.47;58.14;101291.84;6246845;22;45311;-74
2023/06/03 03:52:03;;;;;;;;;18.50;18.50;;;;;16.42;58.32;101289.41;6244809;22;45360;-74
2023/06/03 03:54:29;;;;;;;;;20.75;17.00;;;;;16.33;58.46;101270.09;6246831;22;45389;-74
2023/06/03 03:56:55;;;;;;;;;20.75;18.00;;;;;16.41;58.50;101293.03;6246398;22;45448;-74
2023/06/03 03:59:21;;;;;;;;;16.50;16.50;;;;;16.29;58.51;101293.63;6246052;22;46223;-74
2023/06/03 04:01:47;;;;;;;;;15.50;15.00;;;;;16.27;58.83;101287.41;6245693;22;45455;-74
2023/06/03 04:04:38;;;;;;;;;19.50;17.75;;;;;16.21;58.63;101291.28;6246690;22;45235;-74
2023/06/03 04:07:04;;;;;;;;;23.50;16.75;;;;;16.30;58.70;101303.44;6246133;22;45387;-74
2023/06/03 04:09:30;;;;;;;;;19.75;18.75;;;;;16.25;59.02;101290.19;6246553;22;46189;-74
2023/06/03 04:11:55;;;;;;;;;20.00;16.50;;;;;16.32;58.89;101296.16;6246122;22;45350;-74
2023/06/03 04:14:44;;;;;;;;;18.50;18.50;;;;;16.33;58.84;101297.91;6246677;22;45713;-74
2023/06/03 04:17:12;;;;;;;;;19.50;19.00;;;;;16.29;58.87;101302.56;6246672;22;45279;-74
2023/06/03 04:19:37;;;;;;;;;20.25;18.50;;;;;16.30;58.76;101303.44;6246344;22;46145;-74
2023/06/03 04:22:06;;;;;;;;;19.75;16.00;;;;;16.29;59.08;101302.56;6243791;22;45617;-74
2023/06/03 04:24:33;;;;;;;;;16.50;16.50;;;;;16.27;59.05;101295.50;6246014;22;45499;-74
2023/06/03 04:26:59;;;;;;;;;20.25;18.75;;;;;16.21;58.93;101309.28;6246135;22;45310;-74
2023/06/03 04:29:24;;;;;;;;;20.75;18.00;;;;;16.16;59.02;101296.03;6245845;22;46153;-74
2023/06/03 04:31:50;;;;;;;;;24.00;18.50;;;;;16.11;59.09;101293.53;6246529;22;45443;-74
2023/06/03 04:34:16;;;;;;;;;16.00;16.00;;;;;16.19;59.04;101308.44;6219296;22;45280;-74
2023/06/03 04:36:41;;;;;;;;;20.00;19.75;;;;;16.19;59.20;101303.06;6246253;22;45350;-74
2023/06/03 04:39:08;;;;;;;;;21.75;21.00;;;;;16.21;59.17;101307.44;6245964;22;50223;-74
2023/06/03 04:41:34;;;;;;;;;21.00;19.00;;;;;16.25;59.32;101319.81;6244909;22;45388;-74
2023/06/03 04:44:01;;;;;;;;;21.75;19.75;;;;;16.10;59.04;101285.53;6246281;22;45329;-74
2023/06/03 04:46:29;;;;;;;;;21.00;18.75;;;;;16.28;59.13;101319.66;6246133;22;45232;-74
2023/06/03 04:48:59;;;;;;;;;21.75;20.50;;;;;16.26;58.99;101318.00;6244167;22;47025;-74
2023/06/03 04:51:27;;;;;;;;;20.00;19.00;;;;;16.22;59.27;101322.69;6244253;22;45497;-74
2023/06/03 04:53:56;;;;;;;;;19.75;19.00;;;;;15.98;59.24;101289.66;6246232;22;45200;-74
2023/06/03 04:56:25;;;;;;;;;18.50;17.50;;;;;16.05;59.08;101315.34;6246117;22;45643;-74
2023/06/03 04:58:55;;;;;;;;;19.50;18.50;;;;;16.05;59.49;101314.50;6245453;22;45448;-74
2023/06/03 05:01:25;;;;;;;;;20.50;18.75;;;;;15.91;59.53;101293.59;6246024;22;45635;-74
2023/06/03 05:03:51;;;;;;;;;17.00;15.75;;;;;16.13;59.50;101322.22;6244557;22;45439;-74
2023/06/03 05:06:17;;;;;;;;;18.75;18.50;;;;;16.17;59.31;101330.09;6244143;22;45652;-74
2023/06/03 05:08:42;;;;;;;;;19.50;18.00;;;;;16.19;59.19;101322.81;6218112;22;47022;-74
2023/06/03 05:11:08;;;;;;;;;18.50;17.75;;;;;16.27;59.44;101331.41;6244100;22;45274;-74
2023/06/03 05:13:34;;;;;;;;;16.75;14.75;;;;;16.07;59.35;101296.44;6243869;22;45456;-74
2023/06/03 05:16:00;;;;;;;;;22.75;19.75;;;;;16.29;59.15;101331.34;6245620;22;45193;-74
2023/06/03 05:18:25;;;;;;;;;17.25;17.25;;;;;16.33;59.04;101341.00;6246128;22;45451;-74
2023/06/03 05:20:50;;;;;;;;;18.25;16.75;;;;;16.23;59.28;101316.31;6245790;22;45292;-74
2023/06/03 05:23:16;;;;;;;;;20.00;17.75;;;;;16.34;59.17;101331.09;6244494;22;45251;-74
2023/06/03 05:25:41;;;;;;;;;19.50;16.25;;;;;16.36;59.26;101334.63;6245129;22;45613;-74
2023/06/03 05:28:06;;;;;;;;;15.75;15.50;;;;;16.40;59.20;101329.00;6245229;22;46226;-74
2023/06/03 05:30:32;;;;;;;;;16.50;16.50;;;;;16.44;59.10;101335.13;6245677;22;45315;-74
2023/06/03 05:32:57;;;;;;;;;21.50;18.50;;;;;16.42;59.09;101324.44;6246015;22;45307;-74
2023/06/03 05:35:22;;;;;;;;;20.25;17.25;;;;;16.41;59.22;101327.19;6244881;22;45501;-74
2023/06/03 05:37:48;;;;;;;;;20.00;18.00;;;;;16.47;59.03;101324.19;6246901;22;45224;-74
2023/06/03 05:40:13;;;;;;;;;23.75;20.25;;;;;16.49;59.13;101308.84;6247172;22;45366;-74
2023/06/03 05:42:38;;;;;;;;;18.25;16.50;;;;;16.47;58.95;101317.00;6246226;22;45695;-74
2023/06/03 05:45:04;;;;;;;;;21.00;19.50;;;;;16.48;59.02;101316.03;6247332;22;45513;-74
2023/06/03 05:47:30;;;;;;;;;17.00;16.25;;;;;16.59;59.06;101329.00;6246384;22;46708;-74
2023/06/03 05:49:55;;;;;;;;;20.00;18.00;;;;;16.59;58.87;101325.41;6247275;22;45252;-74
2023/06/03 05:52:22;;;;;;;;;19.50;18.00;;;;;16.40;58.64;101291.28;6246374;22;45299;-74
2023/06/03 05:54:47;;;;;;;;;20.75;18.75;;;;;16.70;58.83;101341.09;6247189;22;45180;-74
2023/06/03 05:57:13;;;;;;;;;21.25;18.50;;;;;16.54;58.65;101322.06;6246642;22;46326;-74
2023/06/03 05:59:38;;;;;;;;;22.25;20.25;;;;;16.57;58.49;101327.31;6247014;22;45444;-74
2023/06/03 06:02:05;;;;;;;;;16.75;15.75;;;;;16.61;58.67;101332.50;6247167;22;45329;-74
2023/06/03 06:04:31;;;;;;;;;21.00;19.75;;;;;16.67;58.84;101328.63;6247040;22;45389;-74
2023/06/03 06:06:56;;;;;;;;;25.50;20.75;;;;;16.71;58.72;101335.63;6246673;22;46320;-74
2023/06/03 06:09:21;;;;;;;;;19.50;19.50;;;;;16.64;58.81;101334.19;6246727;22;46760;-74
2023/06/03 06:11:47;;;;;;;;;19.75;16.75;;;;;16.71;58.77;101351.78;6246611;22;45441;-74
2023/06/03 06:14:12;;;;;;;;;16.00;16.00;;;;;16.68;58.37;101335.75;6244790;22;45661;-74
2023/06/03 06:16:37;;;;;;;;;18.75;18.75;;;;;16.75;58.54;101342.59;6246708;22;46478;-74
2023/06/03 06:19:03;;;;;;;;;16.00;14.00;;;;;16.76;58.76;101346.19;6247033;22;45405;-74
2023/06/03 06:21:28;;;;;;;;;19.00;16.50;;;;;16.79;58.89;101349.59;6247023;22;45259;-74
2023/06/03 06:23:54;;;;;;;;;17.50;15.75;;;;;16.72;58.98;101333.78;6244731;22;45475;-74
2023/06/03 06:26:20;;;;;;;;;20.00;17.75;;;;;16.72;58.93;101333.78;6247070;22;45434;-74
2023/06/03 06:28:46;;;;;;;;;14.75;12.75;;;;;16.79;58.41;101338.81;6246826;22;45476;-74
2023/06/03 06:31:13;;;;;;;;;16.75;16.75;;;;;16.88;58.82;101345.63;6245361;22;45321;-74
2023/06/03 06:33:40;;;;;;;;;17.25;17.25;;;;;16.91;58.47;101352.69;6244018;22;45296;-74
2023/06/03 06:36:27;;;;;;;;;24.25;20.25;;;;;16.81;58.18;101347.69;6246505;22;45929;-74
2023/06/03 06:38:53;;;;;;;;;23.00;19.00;;;;;16.74;58.87;101338.16;6246568;22;45246;-74
2023/06/03 06:41:18;;;;;;;;;20.00;16.25;;;;;16.79;58.89;101346.91;6246945;22;45290;-74
2023/06/03 06:43:43;;;;;;;;;22.75;18.50;;;;;16.87;58.82;101353.78;6246722;22;45509;-74
2023/06/03 06:46:10;;;;;;;;;16.75;14.50;;;;;16.75;58.49;101331.81;6246392;22;45289;-74
2023/06/03 06:48:37;;;;;;;;;21.25;20.50;;;;;16.62;58.60;101314.50;6244769;22;45946;-76
2023/06/03 06:51:03;;;;;;;;;21.00;19.00;;;;;16.81;58.67;101357.63;6246872;22;45324;-77
2023/06/03 06:53:28;;;;;;;;;23.50;21.50;;;;;16.69;58.58;101332.13;6245877;22;45207;-74
2023/06/03 06:55:56;;;;;;;;;21.75;18.00;;;;;16.77;58.46;101345.22;6246670;22;46408;-74
2023/06/03 06:58:24;;;;;;;;;22.75;17.25;;;;;16.72;58.72;101337.34;6244140;22;45599;-75
2023/06/03 07:00:50;;;;;;;;;16.75;16.50;;;;;16.76;58.91;101336.28;6243956;22;45407;-74
2023/06/03 07:03:17;;;;;;;;;16.50;16.25;;;;;16.90;58.47;101362.59;6246952;22;45453;-74
2023/06/03 07:05:43;;;;;;;;;20.25;19.50;;;;;16.80;58.63;101329.75;6245331;22;45244;-74
2023/06/03 07:08:09;;;;;;;;;16.50;15.50;;;;;17.02;58.28;101370.09;6246280;22;45488;-74
2023/06/03 07:10:35;;;;;;;;;16.50;16.50;;;;;16.83;58.29;101336.84;6245094;22;45464;-74
2023/06/03 07:13:02;;;;;;;;;21.00;19.50;;;;;16.91;58.33;101341.91;6246437;22;45607;-73
2023/06/03 07:15:28;;;;;;;;;18.50;17.75;;;;;16.90;58.52;101327.53;6246301;22;45443;-73
2023/06/03 07:17:55;;;;;;;;;22.50;18.00;;;;;17.03;58.33;101339.44;6246786;22;45313;-73
2023/06/03 07:20:25;;;;;;;;;17.50;15.75;;;;;17.16;59.06;101350.50;6247192;22;45387;-73
2023/06/03 07:22:51;;;;;;;;;16.00;16.00;;;;;17.14;59.05;101343.44;6244593;22;45303;-73
2023/06/03 07:25:37;;;;;;;;;20.75;18.75;;;;;17.02;58.48;101308.06;6244674;22;47113;-74
2023/06/03 07:28:14;;;;;;;;;18.25;16.25;;;;;17.27;58.07;101349.09;6246529;22;45528;-74
2023/06/03 07:30:41;;;;;;;;;18.75;16.00;;;;;17.40;57.71;101363.69;6246835;22;45439;-73
2023/06/03 07:33:10;;;;;;;;;20.25;17.75;;;;;17.46;57.58;101359.78;6246691;22;45275;-73
2023/06/03 07:35:36;;;;;;;;;18.50;17.00;;;;;17.34;57.85;101337.91;6246479;22;45403;-73
2023/06/03 07:38:05;;;;;;;;;20.25;17.50;;;;;17.37;57.64;101336.88;6244787;22;45416;-74
2023/06/03 07:40:38;;;;;;;;;18.75;17.75;;;;;17.48;57.48;101350.69;6246776;22;45306;-73
2023/06/03 07:43:04;;;;;;;;;18.75;17.25;;;;;17.46;57.67;101343.59;6246525;22;45411;-74
2023/06/03 07:45:29;;;;;;;;;13.50;13.50;;;;;17.31;57.88;101300.28;6244727;22;48019;-74
2023/06/03 07:47:56;;;;;;;;;18.25;17.00;;;;;17.48;57.22;101325.53;6245955;22;45366;-73
2023/06/03 07:50:23;;;;;;;;;16.75;15.25;;;;;17.59;57.16;101332.13;6246015;22;45624;-74
2023/06/03 07:53:00;;;;;;;;;22.00;19.75;;;;;17.46;57.43;101305.81;6246070;22;45647;-73
2023/06/03 07:55:38;;;;;;;;;16.00;15.25;;;;;17.70;57.03;101336.94;6246698;22;45360;-74
2023/06/03 07:58:04;;;;;;;;;17.00;15.00;;;;;17.82;57.07;101338.09;6246312;22;45417;-75
2023/06/03 08:00:29;;;;;;;;;15.25;12.25;;;;;17.96;56.81;101350.94;6246385;22;45351;-74
2023/06/03 08:02:55;;;;;;;;;16.50;15.50;;;;;18.03;56.61;101346.94;6244613;22;45679;-75
2023/06/03 08:05:33;;;;;;;;;19.50;16.50;;;;;18.00;56.52;101313.81;6246506;22;45495;-74
2023/06/03 08:07:59;;;;;;;;;19.00;18.50;;;;;18.06;56.32;101319.75;6246303;22;45246;-73
2023/06/03 08:10:24;;;;;;;;;13.50;13.25;;;;;18.25;56.15;101335.81;6247014;22;45224;-73
2023/06/03 08:12:50;;;;;;;;;15.25;14.75;;;;;18.34;56.28;101334.44;6245936;22;45471;-75
2023/06/03 08:15:27;;;;;;;;;17.75;16.25;;;;;18.33;56.02;101325.44;6244569;22;45605;-75
2023/06/03 08:17:53;;;;;;;;;19.25;16.50;;;;;18.35;55.97;101319.97;6270145;22;45267;-75
2023/06/03 08:20:26;;;;;;;;;19.75;15.00;;;;;18.54;55.90;101329.75;6246730;22;45329;-76
2023/06/03 08:22:52;;;;;;;;;16.50;16.25;;;;;18.69;55.38;101340.56;6241964;22;45601;-74
2023/06/03 08:25:18;;;;;;;;;16.25;14.50;;;;;18.69;55.62;101331.56;6243612;22;47524;-74
2023/06/03 08:27:43;;;;;;;;;16.00;13.75;;;;;18.77;55.87;101325.72;6242364;22;45666;-74
2023/06/03 08:30:12;;;;;;;;;14.25;12.75;;;;;18.77;55.47;101307.66;6246590;22;45571;-74
2023/06/03 08:32:38;;;;;;;;;12.25;12.00;;;;;18.92;55.27;101303.22;6245923;22;45331;-74
2023/06/03 08:35:05;;;;;;;;;14.00;14.00;;;;;19.04;55.10;101317.88;6246257;22;45998;-74
2023/06/03 08:37:32;;;;;;;;;17.25;17.25;;;;;19.22;54.56;101330.31;6243544;22;45633;-74
2023/06/03 08:39:59;;;;;;;;;14.25;13.50;;;;;19.12;54.72;101306.59;6244663;22;45299;-74
2023/06/03 08:42:33;;;;;;;;;12.25;11.00;;;;;19.11;54.30;101294.03;6244986;22;45339;-77
2023/06/03 08:45:03;;;;;;;;;17.00;14.50;;;;;19.43;54.22;101327.28;6246235;22;45422;-83
2023/06/03 08:47:57;;;;;;;;;18.75;13.75;;;;;19.51;54.11;101330.41;6244327;22;45557;-84
2023/06/03 08:50:24;;;;;;;;;14.00;12.75;;;;;19.49;53.52;101313.38;6245332;22;45416;-84
2023/06/03 08:52:52;;;;;;;;;14.50;13.00;;;;;19.59;53.63;101314.53;6246139;22;45188;-81
2023/06/03 08:55:18;;;;;;;;;12.75;11.00;;;;;19.72;53.25;101322.78;6244491;22;45360;-83
2023/06/03 08:58:02;;;;;;;;;13.50;12.00;;;;;19.71;53.31;101312.94;6243487;22;45433;-81
2023/06/03 09:00:28;;;;;;;;;13.75;13.00;;;;;19.85;52.95;101311.25;6245969;22;45343;-80
2023/06/03 09:02:55;;;;;;;;;14.50;13.25;;;;;19.82;52.77;101306.03;6246000;22;45409;-78
2023/06/03 09:05:21;;;;;;;;;10.50;10.50;;;;;19.82;52.82;101292.47;6246358;22;46168;-84
2023/06/03 09:07:47;;;;;;;;;9.00;9.00;;;;;20.02;52.79;101313.75;6243711;22;45504;-82
2023/06/03 09:10:16;;;;;;;;;12.25;10.25;;;;;20.01;52.52;101308.44;6246982;22;45185;-83
2023/06/03 09:12:43;;;;;;;;;13.00;12.00;;;;;20.14;51.93;101322.94;6244343;22;45357;-74
2023/06/03 09:15:14;;;;;;;;;13.50;11.25;;;;;20.16;52.18;101318.28;6246778;22;46159;-73
2023/06/03 09:17:42;;;;;;;;;16.00;14.00;;;;;20.22;51.68;101325.19;6246960;22;45248;-73
2023/06/03 09:20:09;;;;;;;;;14.50;13.00;;;;;20.05;51.70;101291.03;6245527;22;45359;-73
2023/06/03 09:22:36;;;;;;;;;10.00;10.00;;;;;20.16;51.60;101304.75;6245257;22;45386;-73
2023/06/03 09:25:03;;;;;;;;;12.00;12.00;;;;;20.29;51.75;101315.69;6246631;22;46768;-74
2023/06/03 09:27:28;;;;;;;;;12.25;12.25;;;;;20.31;52.20;101316.44;6245035;22;45268;-73
2023/06/03 09:29:54;;;;;;;;;12.00;10.50;;;;;20.37;51.90;101321.47;6247000;22;45221;-73
2023/06/03 09:32:20;;;;;;;;;11.25;10.00;;;;;20.43;50.90;101322.91;6245342;22;45386;-73
2023/06/03 09:34:46;;;;;;;;;14.00;14.00;;;;;20.29;51.30;101304.84;6247244;22;45545;-73
2023/06/03 09:37:12;;;;;;;;;12.00;10.50;;;;;20.48;50.98;101320.78;6246944;22;45473;-73
2023/06/03 09:39:38;;;;;;;;;10.00;9.25;;;;;20.53;50.14;101335.78;6247177;22;45300;-74
2023/06/03 09:42:04;;;;;;;;;12.00;10.75;;;;;20.54;50.11;101315.81;6247202;22;45537;-73
2023/06/03 09:44:45;;;;;;;;;10.00;9.00;;;;;20.61;49.85;101323.56;6247385;22;45411;-74
2023/06/03 09:47:12;;;;;;;;;13.50;11.50;;;;;20.66;50.26;101329.59;6246824;22;45431;-74
2023/06/03 09:49:37;;;;;;;;;14.75;11.25;;;;;20.67;49.91;101318.63;6247509;22;45575;-73
2023/06/03 09:52:07;;;;;;;;;9.25;9.25;;;;;20.80;48.99;101329.56;6246791;22;45401;-74
2023/06/03 09:54:33;;;;;;;;;11.25;9.50;;;;;20.85;49.25;101327.41;6246505;22;45433;-73
2023/06/03 09:57:10;;;;;;;;;8.75;8.75;;;;;20.85;49.07;101319.28;6245767;22;45247;-71
2023/06/03 09:59:36;;;;;;;;;8.75;8.75;;;;;20.92;48.87;101326.03;6247219;22;45316;-73
2023/06/03 10:02:10;;;;;;;;;10.75;9.00;;;;;20.94;48.96;101317.78;6245257;22;45538;-73
2023/06/03 10:04:41;;;;;;;;;9.00;8.00;;;;;20.99;48.03;101312.91;6247242;22;45828;-75
2023/06/03 10:07:13;;;;;;;;;6.50;6.50;;;;;21.13;48.03;101324.69;6246852;22;45375;-75
2023/06/03 10:09:45;;;;;;;;;10.75;8.75;;;;;21.12;47.78;101310.25;6245235;22;45504;-76
2023/06/03 10:12:11;;;;;;;;;10.00;10.00;;;;;21.20;48.21;101318.75;6247034;22;45432;-75
2023/06/03 10:14:47;;;;;;;;;13.25;11.00;;;;;21.29;47.78;101325.38;6247144;22;45220;-73
2023/06/03 10:17:14;;;;;;;;;13.25;10.00;;;;;21.24;47.75;101300.41;6244465;22;45753;-76
2023/06/03 10:19:45;;;;;;;;;12.00;9.25;;;;;21.31;47.69;101292.69;6245528;22;45333;-76
2023/06/03 10:22:15;;;;;;;;;9.75;8.50;;;;;21.40;47.07;101295.66;6244392;22;45491;-77
2023/06/03 10:24:42;;;;;;;;;11.50;11.50;;;;;21.50;46.95;101312.22;6247011;22;45307;-73
2023/06/03 10:27:08;;;;;;;;;7.50;7.00;;;;;21.57;46.49;101310.81;6246220;22;45384;-74
2023/06/03 10:29:35;;;;;;;;;8.25;8.25;;;;;21.54;46.33;101288.41;6245703;22;45358;-76
2023/06/03 10:32:02;;;;;;;;;9.50;8.00;;;;;21.72;46.72;101316.13;6246535;22;45315;-74
2023/06/03 10:34:28;;;;;;;;;4.75;2.50;;;;;21.55;45.83;101277.44;6246826;22;46959;-73
2023/06/03 10:36:57;;;;;;;;;10.75;10.75;;;;;21.67;45.74;101285.69;6246279;22;45680;-73
2023/06/03 10:39:27;;;;;;;;;11.75;11.00;;;;;21.79;45.73;101302.00;6245347;22;45304;-73
2023/06/03 10:41:56;;;;;;;;;10.25;8.75;;;;;21.68;45.96;101269.28;6246750;22;45394;-73
2023/06/03 10:44:22;;;;;;;;;13.25;12.50;;;;;21.87;45.83;101298.75;6246528;22;47728;-73
2023/06/03 10:47:22;;;;;;;;;8.00;8.00;;;;;21.89;45.14;101299.50;6270717;22;45263;-74
2023/06/03 10:50:04;;;;;;;;;12.00;10.75;;;;;21.85;45.65;101292.53;6246819;22;45381;-73
2023/06/03 10:52:36;;;;;;;;;10.25;10.25;;;;;21.96;45.39;101305.38;6246177;22;45284;-73
2023/06/03 10:55:20;;;;;;;;;16.75;12.50;;;;;22.01;45.76;101308.63;6246939;22;46444;-72
2023/06/03 10:57:49;;;;;;;;;11.75;10.25;;;;;22.01;45.81;101306.78;6243830;22;45510;-73
2023/06/03 11:00:52;;;;;;;;;11.75;11.75;;;;;22.07;44.98;101315.47;6246486;22;45397;-74
2023/06/03 11:03:21;;;;;;;;;12.75;12.25;;;;;21.97;45.60;101299.81;6245073;22;45429;-76
2023/06/03 11:05:46;;;;;;;;;10.75;10.25;;;;;22.06;45.29;101302.88;6269448;22;48229;-74
2023/06/03 11:08:11;;;;;;;;;13.50;13.50;;;;;21.92;45.70;101284.81;6246645;22;45522;-73
2023/06/03 11:10:37;;;;;;;;;13.50;11.50;;;;;22.11;45.48;101300.69;6247246;22;45457;-73
2023/06/03 11:13:03;;;;;;;;;14.33;14.33;;;;;22.09;45.03;101284.47;6244747;22;45574;-74